Latest Weather Observations for Truscott

IDD60801

Issued at 8:01 pm CST Sunday 23 July 2017 (issued every 30 minutes, with the page automatically refreshed every 10 minutes)

About weather observations | Map of weather stations | Latest weather observations for NT | Other Formats
Station Details ID: 001020 Name: TRUSCOTT Lat: -14.09 Lon: 126.39 Height: 51.0 m
Data from the previous 72 hours. | See also: Recent months at Truscott
Date/Time
CST
Temp
°C
App
Temp
°C
Dew
Point
°C
Rel
Hum
%
Delta-T
°C
Wind Press
QNH
hPa
Press
MSL
hPa
Rain since
9am
mm
Dir  Spd
km/h
Gust
km/h
Spd
kts
Gust
kts
23/08:00pm 23.5 23.4 13.4 53 5.9 NE 6 7 3 4 1012.9 1012.6 0.0
23/07:30pm 24.6 24.7 13.8 51 6.4 NE 6 7 3 4 1012.5 1012.2 0.0
23/07:00pm 26.1 25.7 12.9 44 7.7 NNE 7 9 4 5 1012.1 1011.8 0.0
23/06:30pm 27.8 26.3 11.8 37 9.2 NNE 11 15 6 8 1011.8 1011.5 0.0
23/06:00pm 28.9 26.9 11.5 34 10.0 NNE 13 20 7 11 1011.6 1011.3 0.0
23/05:30pm 29.7 27.6 11.2 31 10.7 NNE 13 20 7 11 1011.5 1011.2 0.0
23/05:00pm 30.1 29.1 13.4 36 10.0 N 11 19 6 10 1011.3 1011.0 0.0
23/04:30pm 32.2 28.8 4.1 17 14.6 NE 11 15 6 8 1011.4 1011.1 0.0
23/04:00pm 31.9 27.8 2.1 15 15.0 E 13 20 7 11 1011.5 1011.2 0.0
23/03:30pm 31.9 27.4 2.1 15 15.0 E 15 24 8 13 1011.7 1011.4 0.0
23/03:00pm 31.9 27.4 2.1 15 15.0 ENE 15 24 8 13 1012.2 1011.9 0.0
23/02:30pm 31.3 26.3 1.6 15 14.7 ESE 17 30 9 16 1012.6 1012.3 0.0
23/02:00pm 31.2 26.2 1.5 15 14.7 E 17 24 9 13 1013.1 1012.8 0.0
23/01:30pm 31.0 26.0 1.4 15 14.6 E 17 30 9 16 1013.6 1013.4 0.0
23/01:00pm 30.8 25.9 2.1 16 14.3 E 17 32 9 17 1014.2 1014.0 0.0
23/12:30pm 30.6 25.8 2.8 17 14.0 E 17 28 9 15 1014.6 1014.4 0.0
23/12:00pm 30.1 25.4 3.2 18 13.6 E 17 24 9 13 1015.1 1014.9 0.0
23/11:30am 29.1 23.4 0.7 16 13.7 ESE 20 32 11 17 1015.4 1015.2 0.0
23/11:00am 28.3 22.8 0.9 17 13.2 ESE 19 28 10 15 1015.6 1015.4 0.0
23/10:30am 27.5 22.5 1.1 18 12.6 ESE 17 26 9 14 1015.8 1015.6 0.0
23/10:00am 26.3 21.8 2.3 21 11.7 ESE 15 22 8 12 1015.8 1015.6 0.0
23/09:30am 24.8 21.7 5.6 29 9.8 ESE 11 19 6 10 1015.7 1015.5 0.0
23/09:00am 23.6 21.2 6.8 34 8.7 ESE 9 13 5 7 1015.5 1015.3 0.0
23/08:30am 22.1 21.1 10.9 49 6.2 SSE 7 9 4 5 1015.2 1015.0 0.0
23/08:00am 19.7 19.8 14.5 72 3.0 S 7 9 4 5 1015.1 1014.9 0.0
23/07:30am 19.7 19.5 14.7 73 2.9 S 9 11 5 6 1014.8 1014.6 0.0
23/07:00am 21.4 21.0 16.1 72 3.2 SSW 13 15 7 8 1014.7 1014.5 0.0
23/06:30am 21.2 20.4 15.1 68 3.6 S 13 17 7 9 1014.6 1014.4 0.0
23/06:00am 21.7 20.7 14.6 64 4.2 SSW 13 17 7 9 1014.5 1014.3 0.0
23/05:30am 21.5 20.3 13.9 62 4.4 SSW 13 17 7 9 1014.4 1014.2 0.0
23/05:00am 21.5 20.3 12.9 58 4.9 SSW 11 15 6 8 1014.3 1014.1 0.0
23/04:30am 21.6 20.5 13.0 58 4.9 SSW 11 13 6 7 1014.5 1014.3 0.0
23/04:00am 21.9 20.2 12.5 55 5.3 SSW 13 15 7 8 1014.8 1014.6 0.0
23/03:30am 20.9 20.8 15.0 69 3.5 SSW 9 11 5 6 1015.1 1014.9 0.0
23/03:00am 20.8 20.7 14.9 69 3.5 SSW 9 13 5 7 1015.2 1015.0 0.0
23/02:30am 21.1 20.9 15.6 71 3.3 SSW 11 13 6 7 1015.6 1015.4 0.0
23/02:00am 19.1 19.8 15.6 80 2.1 SSW 6 9 3 5 1015.8 1015.6 0.0
23/01:30am 19.5 20.1 15.8 79 2.2 SSW 7 9 4 5 1015.9 1015.7 0.0
23/01:00am 19.2 19.9 16.2 83 1.8 SSW 7 9 4 5 1016.0 1015.8 0.0
23/12:30am 19.4 20.3 16.1 81 2.0 SSW 6 9 3 5 1015.9 1015.7 0.0
23/12:00am 19.5 21.5 16.0 80 2.1 CALM 0 0 0 0 1015.8 1015.6 0.0
 
Date/Time
CST
Temp
°C
App
Temp
°C
Dew
Point
°C
Rel
Hum
%
Delta-T
°C
Wind Press
QNH
hPa
Press
MSL
hPa
Rain since
9am
mm
Dir  Spd
km/h
Gust
km/h
Spd
kts
Gust
kts
22/11:30pm 19.5 21.3 15.4 77 2.4 CALM 0 0 0 0 1015.9 1015.7 0.0
22/11:00pm 19.5 21.2 15.2 76 2.5 CALM 0 0 0 0 1015.8 1015.6 0.0
22/10:30pm 20.1 21.8 15.3 74 2.8 CALM 0 0 0 0 1015.8 1015.6 0.0
22/10:00pm 20.1 21.8 15.3 74 2.8 CALM 0 0 0 0 1015.6 1015.4 0.0
22/09:30pm 20.4 22.2 15.4 73 3.0 CALM 0 0 0 0 1015.3 1015.1 0.0
22/09:00pm 20.9 22.6 15.2 70 3.4 CALM 0 0 0 0 1015.0 1014.8 0.0
22/08:30pm 21.9 23.5 15.0 65 4.1 CALM 0 6 0 3 1014.6 1014.4 0.0
22/08:00pm 22.7 23.3 15.3 63 4.4 NNE 6 9 3 5 1014.1 1013.9 0.0
22/07:30pm 23.7 24.2 15.5 60 4.9 NNE 7 9 4 5 1013.9 1013.7 0.0
22/07:00pm 24.4 24.5 15.6 58 5.3 NNE 9 15 5 8 1013.5 1013.3 0.0
22/06:30pm 25.5 24.5 14.6 51 6.5 N 13 19 7 10 1013.3 1013.1 0.0
22/06:00pm 26.2 24.4 13.3 45 7.6 N 15 22 8 12 1012.8 1012.5 0.0
22/05:30pm 27.2 23.5 10.0 34 9.6 N 20 28 11 15 1012.5 1012.2 0.0
22/05:00pm 31.5 26.9 -3.8 10 16.0 SSE 11 20 6 11 1012.4 1012.1 0.0
22/04:30pm 31.5 27.3 -3.8 10 16.0 ESE 9 19 5 10 1012.3 1012.0 0.0
22/04:00pm 31.5 26.6 -3.8 10 16.0 ESE 13 20 7 11 1012.3 1012.0 0.0
22/03:30pm 31.3 26.3 -3.9 10 15.9 SSE 13 28 7 15 1012.7 1012.4 0.0
22/03:00pm 31.1 26.7 -2.8 11 15.6 ESE 11 17 6 9 1013.1 1012.8 0.0
22/02:30pm 31.6 27.2 -2.4 11 15.8 E 11 22 6 12 1013.8 1013.6 0.0
22/02:00pm 30.3 25.4 -3.4 11 15.2 SSE 13 20 7 11 1014.4 1014.2 0.0
22/01:30pm 30.0 24.9 -4.9 10 15.3 ESE 13 22 7 12 1014.8 1014.6 0.0
22/01:00pm 28.9 24.1 -2.3 13 14.2 SE 13 22 7 12 1015.4 1015.2 0.0
22/12:30pm 28.6 25.0 2.7 19 12.9 SE 11 19 6 10 1015.8 1015.6 0.0
22/12:00pm 28.5 24.5 2.7 19 12.8 ESE 13 19 7 10 1016.3 1016.1 0.0
22/11:30am 28.6 24.3 1.2 17 13.2 ESE 13 20 7 11 1016.6 1016.4 0.0
22/11:00am 28.0 23.0 -1.0 15 13.4 SE 15 20 8 11 1017.1 1016.9 0.0
22/10:30am 27.7 23.9 4.1 22 11.9 SE 13 24 7 13 1017.1 1016.9 0.0
22/10:00am 26.4 24.7 9.7 35 9.2 SE 9 15 5 8 1017.0 1016.8 0.0
22/09:30am 24.6 23.8 12.9 48 6.8 SE 9 13 5 7 1017.0 1016.8 0.0
22/09:00am 22.5 22.2 14.4 60 4.8 SSE 9 13 5 7 1016.6 1016.4 0.0
22/08:30am 19.4 20.6 16.8 85 1.6 S 6 7 3 4 1016.3 1016.1 0.0
22/08:00am 17.7 19.6 15.7 88 1.2 CALM 0 0 0 0 1015.9 1015.7 0.0
22/07:30am 17.7 19.5 15.5 87 1.3 CALM 0 0 0 0 1015.4 1015.2 0.0
22/07:00am 18.0 18.4 15.4 85 1.5 S 7 7 4 4 1015.2 1015.0 0.0
22/06:30am 18.7 18.9 15.8 83 1.7 SSW 9 9 5 5 1014.9 1014.7 0.0
22/06:00am 19.3 19.7 16.2 82 1.9 S 9 11 5 6 1014.8 1014.6 0.0
22/05:30am 18.3 18.3 15.2 82 1.8 S 9 11 5 6 1014.9 1014.7 0.0
22/05:00am 17.6 17.4 13.5 77 2.3 SSW 7 9 4 5 1014.8 1014.6 0.0
22/04:30am 18.2 18.5 13.5 74 2.7 S 4 6 2 3 1014.9 1014.7 0.0
22/04:00am 18.7 18.9 14.8 78 2.3 S 7 9 4 5 1014.9 1014.7 0.0
22/03:30am 18.9 19.5 15.8 82 1.8 S 7 7 4 4 1015.0 1014.8 0.0
22/03:00am 19.1 19.4 16.0 82 1.8 SSW 9 11 5 6 1015.2 1015.0 0.0
22/02:30am 18.5 18.8 15.0 80 2.0 S 7 9 4 5 1015.3 1015.1 0.0
22/02:00am 18.2 20.0 15.6 85 1.5 CALM 0 0 0 0 1015.5 1015.3 0.0
22/01:30am 18.5 20.3 15.4 82 1.8 CALM 0 0 0 0 1015.8 1015.6 0.0
22/01:00am 19.0 20.9 15.7 81 2.0 CALM 0 0 0 0 1015.8 1015.6 0.0
22/12:30am 19.6 20.9 16.1 80 2.1 ESE 4 6 2 3 1015.9 1015.7 0.0
22/12:00am 18.8 19.5 15.7 82 1.8 ENE 6 9 3 5 1016.0 1015.8 0.0
 
Date/Time
CST
Temp
°C
App
Temp
°C
Dew
Point
°C
Rel
Hum
%
Delta-T
°C
Wind Press
QNH
hPa
Press
MSL
hPa
Rain since
9am
mm
Dir  Spd
km/h
Gust
km/h
Spd
kts
Gust
kts
21/11:30pm 19.7 20.6 16.0 79 2.2 E 6 7 3 4 1015.9 1015.7 0.0
21/11:00pm 19.6 20.2 15.7 78 2.3 ENE 7 9 4 5 1016.1 1015.9 0.0
21/10:30pm 19.8 20.3 15.0 74 2.8 ESE 6 7 3 4 1016.1 1015.9 0.0
21/10:00pm 20.3 22.0 15.3 73 3.0 CALM 0 0 0 0 1016.0 1015.8 0.0
21/09:30pm 21.0 22.8 15.5 71 3.3 CALM 0 0 0 0 1015.8 1015.6 0.0
21/09:00pm 21.8 23.8 15.9 69 3.6 CALM 0 6 0 3 1015.7 1015.5 0.0
21/08:30pm 22.6 24.5 15.7 65 4.2 CALM 0 0 0 0 1015.2 1015.0 0.0
21/08:00pm 23.7 24.6 16.0 62 4.7 NE 6 9 3 5 1014.7 1014.5 0.0
21/07:30pm 24.5 25.1 15.7 58 5.3 NNE 7 11 4 6 1014.4 1014.2 0.0
21/07:00pm 25.5 25.0 14.9 52 6.4 NNE 11 17 6 9 1014.0 1013.8 0.0
21/06:30pm 26.6 24.8 13.3 43 7.8 NNE 15 20 8 11 1013.6 1013.4 0.0
21/06:00pm 27.8 26.1 12.6 39 8.9 NNE 13 19 7 10 1013.3 1013.1 0.0
21/05:30pm 28.5 26.3 12.0 36 9.6 NE 15 22 8 12 1012.8 1012.5 0.0
21/05:00pm 29.4 27.0 11.5 33 10.4 ENE 15 20 8 11 1012.6 1012.3 0.0
21/04:30pm 29.7 27.7 12.6 35 10.1 ENE 15 24 8 13 1012.6 1012.3 0.0
21/04:00pm 29.5 27.0 12.4 35 10.0 NE 17 24 9 13 1012.7 1012.4 0.0
21/03:30pm 30.1 27.6 11.1 31 11.0 ENE 15 24 8 13 1012.9 1012.6 0.0
21/03:00pm 29.9 27.5 11.4 32 10.7 E 15 22 8 12 1013.2 1013.0 0.0
21/02:30pm 30.0 27.3 9.0 27 11.7 E 13 19 7 10 1013.6 1013.4 0.0
21/02:00pm 29.7 26.3 7.6 25 12.0 ENE 15 28 8 15 1014.0 1013.8 0.0
21/01:30pm 29.7 26.2 7.0 24 12.2 ESE 15 24 8 13 1014.4 1014.2 0.0
21/01:00pm 29.3 25.7 6.7 24 12.1 ESE 15 24 8 13 1014.9 1014.7 0.0
21/12:30pm 28.6 24.6 6.7 25 11.6 E 17 24 9 13 1015.1 1014.9 0.0
21/12:00pm 28.0 23.6 6.7 26 11.3 ESE 19 30 10 16 1015.5 1015.3 0.0
21/11:30am 27.8 23.4 6.6 26 11.2 E 19 26 10 14 1015.7 1015.5 0.0
21/11:00am 27.3 22.8 6.1 26 11.1 E 19 28 10 15 1016.0 1015.8 0.0
21/10:30am 26.5 22.0 6.0 27 10.6 E 19 30 10 16 1016.1 1015.9 0.0
21/10:00am 26.0 22.7 6.6 29 10.2 E 13 20 7 11 1016.0 1015.8 0.0
21/09:30am 24.1 22.0 8.1 36 8.5 ESE 9 13 5 7 1015.8 1015.6 0.0
21/09:00am 22.8 21.0 7.8 38 7.9 SE 7 11 4 6 1015.4 1015.2 0.0
21/08:30am 21.1 19.1 7.0 40 7.2 SSE 7 9 4 5 1014.9 1014.7 0.0
21/08:00am 18.7 16.8 7.5 48 5.7 SSE 7 9 4 5 1014.5 1014.3 0.0
21/07:30am 18.0 16.1 7.4 50 5.4 SSE 7 9 4 5 1014.0 1013.8 0.0
21/07:00am 18.3 16.4 7.7 50 5.4 S 7 9 4 5 1013.6 1013.4 0.0
21/06:30am 18.9 17.1 8.0 49 5.6 S 7 9 4 5 1013.3 1013.1 0.0
21/06:00am 19.8 18.1 8.5 48 5.9 S 7 9 4 5 1013.2 1013.0 0.0
21/05:30am 19.2 17.7 9.1 52 5.3 S 7 9 4 5 1012.9 1012.6 0.0
21/05:00am 19.2 17.4 9.4 53 5.2 SSW 9 9 5 5 1013.0 1012.7 0.0
21/04:30am 18.8 17.5 10.1 57 4.7 S 7 9 4 5 1013.0 1012.7 0.0
21/04:00am 19.2 18.1 10.5 57 4.7 SSW 7 9 4 5 1013.1 1012.8 0.0
21/03:30am 19.3 18.4 11.3 60 4.4 S 7 9 4 5 1013.2 1013.0 0.0
21/03:00am 18.9 19.5 11.9 64 3.9 CALM 0 0 0 0 1013.5 1013.3 0.0
21/02:30am 19.2 20.1 12.9 67 3.6 CALM 0 0 0 0 1013.9 1013.7 0.0
21/02:00am 19.3 20.2 13.0 67 3.6 CALM 0 0 0 0 1013.9 1013.7 0.0
21/01:30am 20.0 20.9 13.0 64 4.0 CALM 0 4 0 2 1014.1 1013.9 0.0
21/01:00am 21.8 21.7 13.2 58 4.9 SSE 6 7 3 4 1014.2 1014.0 0.0
21/12:30am 22.9 22.3 13.4 55 5.5 E 9 11 5 6 1014.2 1014.0 0.0
21/12:00am 23.3 22.7 13.5 54 5.7 E 9 17 5 9 1014.2 1014.0 0.0
 
Date/Time
CST
Temp
°C
App
Temp
°C
Dew
Point
°C
Rel
Hum
%
Delta-T
°C
Wind Press
QNH
hPa
Press
MSL
hPa
Rain since
9am
mm
Dir  Spd
km/h
Gust
km/h
Spd
kts
Gust
kts
20/11:30pm 23.8 22.8 13.4 52 6.1 ENE 11 17 6 9 1014.2 1014.0 0.0
20/11:00pm 23.7 22.8 13.6 53 5.9 E 11 15 6 8 1014.3 1014.1 0.0
20/10:30pm 23.8 22.9 13.6 52 6.0 E 11 17 6 9 1014.3 1014.1 0.0
20/10:00pm 24.2 23.3 13.7 52 6.2 E 11 17 6 9 1014.2 1014.0 0.0

Other Formats:

Comma delimited format used in spreadsheet applications
http://www.bom.gov.au/fwo/IDD60801/IDD60801.95101.axf

JavaScript Object Notation format (JSON) in row-major order
http://www.bom.gov.au/fwo/IDD60801/IDD60801.95101.json